sensor_id;sensor_type;location;lat;lon;timestamp;P1;durP1;ratioP1;P2;durP2;ratioP2
18304;SDS011;9278;52.156;21.048;2022-08-18T00:01:08;39.70;;;27.02;;
18304;SDS011;9278;52.156;21.048;2022-08-18T00:03:41;41.42;;;28.23;;
18304;SDS011;9278;52.156;21.048;2022-08-18T00:06:22;36.30;;;27.80;;
18304;SDS011;9278;52.156;21.048;2022-08-18T00:08:56;42.53;;;27.15;;
18304;SDS011;9278;52.156;21.048;2022-08-18T00:11:29;39.22;;;27.42;;
18304;SDS011;9278;52.156;21.048;2022-08-18T00:14:08;42.88;;;28.40;;
18304;SDS011;9278;52.156;21.048;2022-08-18T00:16:50;46.35;;;29.98;;
18304;SDS011;9278;52.156;21.048;2022-08-18T00:19:20;47.95;;;29.08;;
18304;SDS011;9278;52.156;21.048;2022-08-18T00:22:18;44.17;;;29.15;;
18304;SDS011;9278;52.156;21.048;2022-08-18T00:24:50;42.65;;;29.45;;
18304;SDS011;9278;52.156;21.048;2022-08-18T00:27:21;41.45;;;29.77;;
18304;SDS011;9278;52.156;21.048;2022-08-18T00:29:55;36.95;;;28.05;;
18304;SDS011;9278;52.156;21.048;2022-08-18T00:32:25;43.40;;;30.25;;
18304;SDS011;9278;52.156;21.048;2022-08-18T00:34:56;35.33;;;28.40;;
18304;SDS011;9278;52.156;21.048;2022-08-18T00:37:28;41.17;;;29.02;;
18304;SDS011;9278;52.156;21.048;2022-08-18T00:39:59;44.20;;;28.42;;
18304;SDS011;9278;52.156;21.048;2022-08-18T00:42:36;38.03;;;29.13;;
18304;SDS011;9278;52.156;21.048;2022-08-18T00:45:13;38.70;;;28.75;;
18304;SDS011;9278;52.156;21.048;2022-08-18T00:47:43;37.90;;;28.55;;
18304;SDS011;9278;52.156;21.048;2022-08-18T00:50:26;56.72;;;30.90;;
18304;SDS011;9278;52.156;21.048;2022-08-18T00:52:59;43.47;;;29.60;;
18304;SDS011;9278;52.156;21.048;2022-08-18T00:55:33;42.53;;;30.75;;
18304;SDS011;9278;52.156;21.048;2022-08-18T00:58:07;41.70;;;31.17;;
18304;SDS011;9278;52.156;21.048;2022-08-18T01:00:41;44.47;;;30.02;;
18304;SDS011;9278;52.156;21.048;2022-08-18T01:03:12;40.97;;;29.13;;
18304;SDS011;9278;52.156;21.048;2022-08-18T01:05:52;43.03;;;29.02;;
18304;SDS011;9278;52.156;21.048;2022-08-18T01:08:24;42.30;;;29.02;;
18304;SDS011;9278;52.156;21.048;2022-08-18T01:10:56;42.15;;;28.65;;
18304;SDS011;9278;52.156;21.048;2022-08-18T01:13:28;40.85;;;29.73;;
18304;SDS011;9278;52.156;21.048;2022-08-18T01:15:59;41.65;;;29.80;;
18304;SDS011;9278;52.156;21.048;2022-08-18T01:18:49;38.97;;;29.58;;
18304;SDS011;9278;52.156;21.048;2022-08-18T01:21:37;42.88;;;29.23;;
18304;SDS011;9278;52.156;21.048;2022-08-18T01:24:22;43.50;;;29.33;;
18304;SDS011;9278;52.156;21.048;2022-08-18T01:27:09;44.42;;;31.33;;
18304;SDS011;9278;52.156;21.048;2022-08-18T01:29:43;43.45;;;29.63;;
18304;SDS011;9278;52.156;21.048;2022-08-18T01:32:13;44.88;;;30.98;;
18304;SDS011;9278;52.156;21.048;2022-08-18T01:34:45;43.78;;;30.02;;
18304;SDS011;9278;52.156;21.048;2022-08-18T01:37:16;39.63;;;29.20;;
18304;SDS011;9278;52.156;21.048;2022-08-18T01:39:49;42.58;;;30.77;;
18304;SDS011;9278;52.156;21.048;2022-08-18T01:42:38;48.83;;;31.27;;
18304;SDS011;9278;52.156;21.048;2022-08-18T01:45:09;39.83;;;29.90;;
18304;SDS011;9278;52.156;21.048;2022-08-18T01:47:38;55.38;;;35.55;;
18304;SDS011;9278;52.156;21.048;2022-08-18T01:50:14;77.32;;;47.50;;
18304;SDS011;9278;52.156;21.048;2022-08-18T01:52:43;67.10;;;42.50;;
18304;SDS011;9278;52.156;21.048;2022-08-18T01:55:13;57.17;;;37.15;;
18304;SDS011;9278;52.156;21.048;2022-08-18T01:57:42;51.53;;;35.17;;
18304;SDS011;9278;52.156;21.048;2022-08-18T02:00:12;44.72;;;29.92;;
18304;SDS011;9278;52.156;21.048;2022-08-18T02:02:42;42.05;;;29.17;;
18304;SDS011;9278;52.156;21.048;2022-08-18T02:05:11;44.95;;;29.70;;
18304;SDS011;9278;52.156;21.048;2022-08-18T02:07:43;42.38;;;31.58;;
18304;SDS011;9278;52.156;21.048;2022-08-18T02:10:15;41.55;;;29.83;;
18304;SDS011;9278;52.156;21.048;2022-08-18T02:12:45;40.15;;;29.23;;
18304;SDS011;9278;52.156;21.048;2022-08-18T02:15:13;44.72;;;30.67;;
18304;SDS011;9278;52.156;21.048;2022-08-18T02:17:43;41.75;;;29.20;;
18304;SDS011;9278;52.156;21.048;2022-08-18T02:20:13;37.75;;;28.80;;
18304;SDS011;9278;52.156;21.048;2022-08-18T02:22:44;43.80;;;31.33;;
18304;SDS011;9278;52.156;21.048;2022-08-18T02:25:16;44.10;;;29.55;;
18304;SDS011;9278;52.156;21.048;2022-08-18T02:27:45;41.88;;;30.90;;
18304;SDS011;9278;52.156;21.048;2022-08-18T02:30:17;48.45;;;31.38;;
18304;SDS011;9278;52.156;21.048;2022-08-18T02:32:46;40.83;;;30.45;;
18304;SDS011;9278;52.156;21.048;2022-08-18T02:35:15;39.55;;;29.90;;
18304;SDS011;9278;52.156;21.048;2022-08-18T02:37:43;41.97;;;30.67;;
18304;SDS011;9278;52.156;21.048;2022-08-18T02:40:15;42.85;;;30.35;;
18304;SDS011;9278;52.156;21.048;2022-08-18T02:42:45;41.95;;;30.08;;
18304;SDS011;9278;52.156;21.048;2022-08-18T02:45:14;44.72;;;30.20;;
18304;SDS011;9278;52.156;21.048;2022-08-18T02:47:43;41.65;;;30.20;;
18304;SDS011;9278;52.156;21.048;2022-08-18T02:50:13;46.40;;;30.67;;
18304;SDS011;9278;52.156;21.048;2022-08-18T02:52:42;47.38;;;32.72;;
18304;SDS011;9278;52.156;21.048;2022-08-18T02:55:10;45.17;;;31.80;;
18304;SDS011;9278;52.156;21.048;2022-08-18T02:57:41;45.67;;;32.05;;
18304;SDS011;9278;52.156;21.048;2022-08-18T03:00:12;45.03;;;32.33;;
18304;SDS011;9278;52.156;21.048;2022-08-18T03:02:44;43.42;;;30.75;;
18304;SDS011;9278;52.156;21.048;2022-08-18T03:05:13;44.25;;;30.52;;
18304;SDS011;9278;52.156;21.048;2022-08-18T03:07:42;49.25;;;31.55;;
18304;SDS011;9278;52.156;21.048;2022-08-18T03:10:12;43.75;;;30.48;;
18304;SDS011;9278;52.156;21.048;2022-08-18T03:13:01;40.90;;;30.83;;
18304;SDS011;9278;52.156;21.048;2022-08-18T03:15:30;41.22;;;29.50;;
18304;SDS011;9278;52.156;21.048;2022-08-18T03:17:59;43.50;;;30.52;;
18304;SDS011;9278;52.156;21.048;2022-08-18T03:20:27;49.08;;;31.77;;
18304;SDS011;9278;52.156;21.048;2022-08-18T03:22:57;42.35;;;30.33;;
18304;SDS011;9278;52.156;21.048;2022-08-18T03:25:31;46.03;;;31.58;;
18304;SDS011;9278;52.156;21.048;2022-08-18T03:28:02;51.28;;;32.22;;
18304;SDS011;9278;52.156;21.048;2022-08-18T03:30:32;49.10;;;32.13;;
18304;SDS011;9278;52.156;21.048;2022-08-18T03:33:00;42.35;;;31.00;;
18304;SDS011;9278;52.156;21.048;2022-08-18T03:35:29;52.97;;;34.65;;
18304;SDS011;9278;52.156;21.048;2022-08-18T03:37:57;44.92;;;35.10;;
18304;SDS011;9278;52.156;21.048;2022-08-18T03:40:26;49.15;;;34.42;;
18304;SDS011;9278;52.156;21.048;2022-08-18T03:42:55;45.25;;;32.72;;
18304;SDS011;9278;52.156;21.048;2022-08-18T03:45:29;49.13;;;35.28;;
18304;SDS011;9278;52.156;21.048;2022-08-18T03:47:58;53.40;;;36.63;;
18304;SDS011;9278;52.156;21.048;2022-08-18T03:50:27;48.75;;;35.63;;
18304;SDS011;9278;52.156;21.048;2022-08-18T03:52:57;48.90;;;36.28;;
18304;SDS011;9278;52.156;21.048;2022-08-18T03:55:26;41.63;;;32.28;;
18304;SDS011;9278;52.156;21.048;2022-08-18T03:57:58;47.38;;;34.97;;
18304;SDS011;9278;52.156;21.048;2022-08-18T04:00:30;50.15;;;34.58;;
18304;SDS011;9278;52.156;21.048;2022-08-18T04:03:01;47.28;;;33.38;;
18304;SDS011;9278;52.156;21.048;2022-08-18T04:05:29;46.95;;;34.72;;
18304;SDS011;9278;52.156;21.048;2022-08-18T04:07:58;44.40;;;32.03;;
18304;SDS011;9278;52.156;21.048;2022-08-18T04:10:26;40.65;;;30.58;;
18304;SDS011;9278;52.156;21.048;2022-08-18T04:12:54;42.95;;;30.95;;
18304;SDS011;9278;52.156;21.048;2022-08-18T04:15:24;41.65;;;30.27;;
18304;SDS011;9278;52.156;21.048;2022-08-18T04:17:58;37.42;;;27.60;;
18304;SDS011;9278;52.156;21.048;2022-08-18T04:20:30;37.70;;;27.75;;
18304;SDS011;9278;52.156;21.048;2022-08-18T04:22:59;36.60;;;26.02;;
18304;SDS011;9278;52.156;21.048;2022-08-18T04:25:29;36.33;;;25.77;;
18304;SDS011;9278;52.156;21.048;2022-08-18T04:27:59;43.83;;;26.20;;
18304;SDS011;9278;52.156;21.048;2022-08-18T04:30:29;37.55;;;25.88;;
18304;SDS011;9278;52.156;21.048;2022-08-18T04:33:01;32.58;;;24.85;;
18304;SDS011;9278;52.156;21.048;2022-08-18T04:35:32;39.83;;;25.38;;
18304;SDS011;9278;52.156;21.048;2022-08-18T04:38:00;36.30;;;25.90;;
18304;SDS011;9278;52.156;21.048;2022-08-18T04:40:29;33.60;;;24.33;;
18304;SDS011;9278;52.156;21.048;2022-08-18T04:43:00;33.58;;;24.30;;
18304;SDS011;9278;52.156;21.048;2022-08-18T04:45:28;33.50;;;24.35;;
18304;SDS011;9278;52.156;21.048;2022-08-18T04:47:57;32.38;;;25.30;;
18304;SDS011;9278;52.156;21.048;2022-08-18T04:50:28;34.13;;;24.38;;
18304;SDS011;9278;52.156;21.048;2022-08-18T04:52:56;38.45;;;24.92;;
18304;SDS011;9278;52.156;21.048;2022-08-18T04:55:45;35.05;;;24.35;;
18304;SDS011;9278;52.156;21.048;2022-08-18T04:58:15;35.88;;;23.02;;
18304;SDS011;9278;52.156;21.048;2022-08-18T05:00:44;32.53;;;24.17;;
18304;SDS011;9278;52.156;21.048;2022-08-18T05:03:12;37.40;;;24.60;;
18304;SDS011;9278;52.156;21.048;2022-08-18T05:05:42;39.83;;;24.42;;
18304;SDS011;9278;52.156;21.048;2022-08-18T05:08:10;35.35;;;24.63;;
18304;SDS011;9278;52.156;21.048;2022-08-18T05:10:39;32.72;;;23.27;;
18304;SDS011;9278;52.156;21.048;2022-08-18T05:13:07;33.05;;;23.02;;
18304;SDS011;9278;52.156;21.048;2022-08-18T05:15:36;43.35;;;24.95;;
18304;SDS011;9278;52.156;21.048;2022-08-18T05:18:25;35.72;;;24.38;;
18304;SDS011;9278;52.156;21.048;2022-08-18T05:20:55;37.28;;;23.23;;
18304;SDS011;9278;52.156;21.048;2022-08-18T05:23:27;35.22;;;23.77;;
18304;SDS011;9278;52.156;21.048;2022-08-18T05:25:58;30.20;;;23.42;;
18304;SDS011;9278;52.156;21.048;2022-08-18T05:28:27;31.90;;;22.90;;
18304;SDS011;9278;52.156;21.048;2022-08-18T05:30:57;34.80;;;22.77;;
18304;SDS011;9278;52.156;21.048;2022-08-18T05:33:26;28.90;;;21.85;;
18304;SDS011;9278;52.156;21.048;2022-08-18T05:36:00;27.55;;;21.10;;
18304;SDS011;9278;52.156;21.048;2022-08-18T05:38:37;34.00;;;22.30;;
18304;SDS011;9278;52.156;21.048;2022-08-18T05:41:14;34.75;;;21.88;;
18304;SDS011;9278;52.156;21.048;2022-08-18T05:43:50;29.65;;;22.23;;
18304;SDS011;9278;52.156;21.048;2022-08-18T05:46:20;34.92;;;22.65;;
18304;SDS011;9278;52.156;21.048;2022-08-18T05:48:58;33.15;;;22.33;;
18304;SDS011;9278;52.156;21.048;2022-08-18T05:51:30;28.63;;;20.88;;
18304;SDS011;9278;52.156;21.048;2022-08-18T05:54:01;33.75;;;22.48;;
18304;SDS011;9278;52.156;21.048;2022-08-18T05:56:50;27.80;;;20.23;;
18304;SDS011;9278;52.156;21.048;2022-08-18T05:59:21;28.65;;;21.45;;
18304;SDS011;9278;52.156;21.048;2022-08-18T06:01:57;30.83;;;22.13;;
18304;SDS011;9278;52.156;21.048;2022-08-18T06:04:37;32.13;;;21.83;;
18304;SDS011;9278;52.156;21.048;2022-08-18T06:07:18;28.45;;;21.90;;
18304;SDS011;9278;52.156;21.048;2022-08-18T06:09:59;31.70;;;21.63;;
18304;SDS011;9278;52.156;21.048;2022-08-18T06:12:30;31.83;;;21.95;;
18304;SDS011;9278;52.156;21.048;2022-08-18T06:15:04;34.97;;;22.17;;
18304;SDS011;9278;52.156;21.048;2022-08-18T06:17:49;34.58;;;22.65;;
18304;SDS011;9278;52.156;21.048;2022-08-18T06:20:27;34.78;;;22.73;;
18304;SDS011;9278;52.156;21.048;2022-08-18T06:23:05;34.80;;;22.83;;
18304;SDS011;9278;52.156;21.048;2022-08-18T06:25:48;36.85;;;22.10;;
18304;SDS011;9278;52.156;21.048;2022-08-18T06:28:30;33.63;;;22.70;;
18304;SDS011;9278;52.156;21.048;2022-08-18T06:31:12;36.05;;;20.73;;
18304;SDS011;9278;52.156;21.048;2022-08-18T06:33:56;30.40;;;19.80;;
18304;SDS011;9278;52.156;21.048;2022-08-18T06:36:33;31.33;;;20.77;;
18304;SDS011;9278;52.156;21.048;2022-08-18T06:39:11;30.55;;;21.00;;
18304;SDS011;9278;52.156;21.048;2022-08-18T06:41:47;30.35;;;20.30;;
18304;SDS011;9278;52.156;21.048;2022-08-18T06:44:20;26.58;;;19.73;;
18304;SDS011;9278;52.156;21.048;2022-08-18T06:46:55;33.40;;;21.15;;
18304;SDS011;9278;52.156;21.048;2022-08-18T06:49:34;29.50;;;20.50;;
18304;SDS011;9278;52.156;21.048;2022-08-18T06:52:19;26.27;;;19.00;;
18304;SDS011;9278;52.156;21.048;2022-08-18T06:54:51;29.70;;;19.80;;
18304;SDS011;9278;52.156;21.048;2022-08-18T06:57:22;27.67;;;18.85;;
18304;SDS011;9278;52.156;21.048;2022-08-18T06:59:58;25.90;;;17.77;;
18304;SDS011;9278;52.156;21.048;2022-08-18T07:02:39;31.23;;;18.08;;
18304;SDS011;9278;52.156;21.048;2022-08-18T07:08:14;30.15;;;18.73;;
18304;SDS011;9278;52.156;21.048;2022-08-18T07:11:10;27.52;;;17.80;;
18304;SDS011;9278;52.156;21.048;2022-08-18T07:13:52;24.55;;;16.10;;
18304;SDS011;9278;52.156;21.048;2022-08-18T07:16:42;23.92;;;15.50;;
18304;SDS011;9278;52.156;21.048;2022-08-18T07:19:27;26.58;;;17.33;;
18304;SDS011;9278;52.156;21.048;2022-08-18T07:22:12;23.25;;;16.02;;
18304;SDS011;9278;52.156;21.048;2022-08-18T07:34:14;20.60;;;12.85;;
18304;SDS011;9278;52.156;21.048;2022-08-18T07:36:51;30.23;;;13.43;;
18304;SDS011;9278;52.156;21.048;2022-08-18T07:40:03;21.25;;;11.52;;
18304;SDS011;9278;52.156;21.048;2022-08-18T07:43:09;20.92;;;14.00;;
18304;SDS011;9278;52.156;21.048;2022-08-18T07:46:47;21.17;;;11.77;;
18304;SDS011;9278;52.156;21.048;2022-08-18T07:53:10;20.70;;;11.32;;
18304;SDS011;9278;52.156;21.048;2022-08-18T07:56:04;18.30;;;11.85;;
18304;SDS011;9278;52.156;21.048;2022-08-18T08:02:21;18.63;;;11.55;;
18304;SDS011;9278;52.156;21.048;2022-08-18T08:05:08;17.30;;;10.90;;
18304;SDS011;9278;52.156;21.048;2022-08-18T08:08:18;20.17;;;11.05;;
18304;SDS011;9278;52.156;21.048;2022-08-18T08:11:54;16.23;;;9.68;;
18304;SDS011;9278;52.156;21.048;2022-08-18T08:14:33;25.13;;;9.88;;
18304;SDS011;9278;52.156;21.048;2022-08-18T08:21:04;25.60;;;12.35;;
18304;SDS011;9278;52.156;21.048;2022-08-18T08:23:39;21.45;;;12.68;;
18304;SDS011;9278;52.156;21.048;2022-08-18T08:29:15;24.25;;;12.88;;
18304;SDS011;9278;52.156;21.048;2022-08-18T08:31:53;24.10;;;12.27;;
18304;SDS011;9278;52.156;21.048;2022-08-18T08:34:29;20.55;;;12.13;;
18304;SDS011;9278;52.156;21.048;2022-08-18T08:37:06;21.15;;;12.48;;
18304;SDS011;9278;52.156;21.048;2022-08-18T08:39:39;20.17;;;12.05;;
18304;SDS011;9278;52.156;21.048;2022-08-18T08:42:12;17.40;;;11.43;;
18304;SDS011;9278;52.156;21.048;2022-08-18T08:44:59;22.40;;;12.50;;
18304;SDS011;9278;52.156;21.048;2022-08-18T08:47:33;19.50;;;11.07;;
18304;SDS011;9278;52.156;21.048;2022-08-18T08:50:09;23.42;;;12.55;;
18304;SDS011;9278;52.156;21.048;2022-08-18T08:52:43;15.90;;;11.93;;
18304;SDS011;9278;52.156;21.048;2022-08-18T08:55:17;22.73;;;12.98;;
18304;SDS011;9278;52.156;21.048;2022-08-18T08:57:59;21.95;;;12.43;;
18304;SDS011;9278;52.156;21.048;2022-08-18T09:00:37;28.23;;;13.80;;
18304;SDS011;9278;52.156;21.048;2022-08-18T09:06:14;20.90;;;12.32;;
18304;SDS011;9278;52.156;21.048;2022-08-18T09:08:59;17.40;;;11.57;;
18304;SDS011;9278;52.156;21.048;2022-08-18T09:11:47;27.02;;;11.32;;
18304;SDS011;9278;52.156;21.048;2022-08-18T09:17:49;20.95;;;10.45;;
18304;SDS011;9278;52.156;21.048;2022-08-18T09:20:44;15.98;;;10.82;;
18304;SDS011;9278;52.156;21.048;2022-08-18T09:23:27;20.00;;;11.23;;
18304;SDS011;9278;52.156;21.048;2022-08-18T09:26:20;15.52;;;10.73;;
18304;SDS011;9278;52.156;21.048;2022-08-18T09:28:54;20.38;;;10.07;;
18304;SDS011;9278;52.156;21.048;2022-08-18T09:31:25;16.65;;;10.25;;
18304;SDS011;9278;52.156;21.048;2022-08-18T09:34:06;16.58;;;10.40;;
18304;SDS011;9278;52.156;21.048;2022-08-18T09:37:02;15.98;;;9.88;;
18304;SDS011;9278;52.156;21.048;2022-08-18T09:39:42;21.88;;;9.73;;
18304;SDS011;9278;52.156;21.048;2022-08-18T09:42:38;16.67;;;8.85;;
18304;SDS011;9278;52.156;21.048;2022-08-18T09:45:43;19.98;;;9.32;;
18304;SDS011;9278;52.156;21.048;2022-08-18T09:48:24;16.45;;;9.02;;
18304;SDS011;9278;52.156;21.048;2022-08-18T09:54:13;14.98;;;8.35;;
18304;SDS011;9278;52.156;21.048;2022-08-18T09:57:06;14.18;;;8.02;;
18304;SDS011;9278;52.156;21.048;2022-08-18T09:59:51;17.92;;;7.70;;
18304;SDS011;9278;52.156;21.048;2022-08-18T10:06:13;14.20;;;8.07;;
18304;SDS011;9278;52.156;21.048;2022-08-18T10:15:28;12.18;;;8.10;;
18304;SDS011;9278;52.156;21.048;2022-08-18T10:21:11;14.43;;;8.32;;
18304;SDS011;9278;52.156;21.048;2022-08-18T10:23:52;19.40;;;8.73;;
18304;SDS011;9278;52.156;21.048;2022-08-18T10:29:50;12.98;;;8.40;;
18304;SDS011;9278;52.156;21.048;2022-08-18T10:38:42;14.75;;;7.72;;
18304;SDS011;9278;52.156;21.048;2022-08-18T10:41:20;13.00;;;7.85;;
18304;SDS011;9278;52.156;21.048;2022-08-18T10:43:56;13.27;;;8.13;;
18304;SDS011;9278;52.156;21.048;2022-08-18T10:46:53;12.63;;;7.93;;
18304;SDS011;9278;52.156;21.048;2022-08-18T10:49:28;12.77;;;7.80;;
18304;SDS011;9278;52.156;21.048;2022-08-18T10:52:13;13.52;;;7.70;;
18304;SDS011;9278;52.156;21.048;2022-08-18T10:55:41;14.95;;;7.90;;
18304;SDS011;9278;52.156;21.048;2022-08-18T10:58:31;13.23;;;7.43;;
18304;SDS011;9278;52.156;21.048;2022-08-18T11:01:24;11.43;;;7.20;;
18304;SDS011;9278;52.156;21.048;2022-08-18T11:04:07;10.82;;;7.68;;
18304;SDS011;9278;52.156;21.048;2022-08-18T11:07:07;14.55;;;8.07;;
18304;SDS011;9278;52.156;21.048;2022-08-18T11:09:39;11.45;;;7.65;;
18304;SDS011;9278;52.156;21.048;2022-08-18T11:12:41;19.10;;;7.72;;
18304;SDS011;9278;52.156;21.048;2022-08-18T11:15:48;13.43;;;7.28;;
18304;SDS011;9278;52.156;21.048;2022-08-18T11:18:38;11.70;;;7.20;;
18304;SDS011;9278;52.156;21.048;2022-08-18T11:21:29;12.88;;;8.00;;
18304;SDS011;9278;52.156;21.048;2022-08-18T11:24:13;13.75;;;9.00;;
18304;SDS011;9278;52.156;21.048;2022-08-18T11:26:54;10.35;;;7.15;;
18304;SDS011;9278;52.156;21.048;2022-08-18T11:29:27;16.60;;;7.80;;
18304;SDS011;9278;52.156;21.048;2022-08-18T11:32:04;12.02;;;7.00;;
18304;SDS011;9278;52.156;21.048;2022-08-18T11:34:40;14.27;;;7.57;;
18304;SDS011;9278;52.156;21.048;2022-08-18T11:37:30;15.57;;;7.63;;
18304;SDS011;9278;52.156;21.048;2022-08-18T11:43:29;17.10;;;8.18;;
18304;SDS011;9278;52.156;21.048;2022-08-18T11:46:11;13.80;;;8.13;;
18304;SDS011;9278;52.156;21.048;2022-08-18T11:48:59;12.23;;;8.10;;
18304;SDS011;9278;52.156;21.048;2022-08-18T11:51:52;12.23;;;8.18;;
18304;SDS011;9278;52.156;21.048;2022-08-18T11:54:34;21.15;;;9.43;;
18304;SDS011;9278;52.156;21.048;2022-08-18T11:57:29;18.98;;;8.35;;
18304;SDS011;9278;52.156;21.048;2022-08-18T12:03:29;16.70;;;7.40;;
18304;SDS011;9278;52.156;21.048;2022-08-18T12:06:17;13.93;;;7.85;;
18304;SDS011;9278;52.156;21.048;2022-08-18T12:12:24;13.90;;;7.25;;
18304;SDS011;9278;52.156;21.048;2022-08-18T12:14:56;22.23;;;7.60;;
18304;SDS011;9278;52.156;21.048;2022-08-18T12:17:46;15.07;;;6.90;;
18304;SDS011;9278;52.156;21.048;2022-08-18T12:20:18;18.88;;;7.30;;
18304;SDS011;9278;52.156;21.048;2022-08-18T12:22:48;14.88;;;6.97;;
18304;SDS011;9278;52.156;21.048;2022-08-18T12:25:19;9.25;;;6.22;;
18304;SDS011;9278;52.156;21.048;2022-08-18T12:27:52;12.57;;;6.40;;
18304;SDS011;9278;52.156;21.048;2022-08-18T12:30:20;11.07;;;6.80;;
18304;SDS011;9278;52.156;21.048;2022-08-18T12:32:49;11.00;;;6.55;;
18304;SDS011;9278;52.156;21.048;2022-08-18T12:35:37;12.70;;;6.75;;
18304;SDS011;9278;52.156;21.048;2022-08-18T12:38:07;10.98;;;6.90;;
18304;SDS011;9278;52.156;21.048;2022-08-18T12:40:55;19.88;;;7.85;;
18304;SDS011;9278;52.156;21.048;2022-08-18T12:43:25;16.05;;;7.28;;
18304;SDS011;9278;52.156;21.048;2022-08-18T12:45:57;18.58;;;7.25;;
18304;SDS011;9278;52.156;21.048;2022-08-18T12:48:26;15.05;;;7.20;;
18304;SDS011;9278;52.156;21.048;2022-08-18T12:50:57;13.13;;;6.60;;
18304;SDS011;9278;52.156;21.048;2022-08-18T13:36:56;12.93;;;7.05;;
18304;SDS011;9278;52.156;21.048;2022-08-18T13:39:24;15.23;;;7.15;;
18304;SDS011;9278;52.156;21.048;2022-08-18T13:41:59;14.75;;;7.22;;
18304;SDS011;9278;52.156;21.048;2022-08-18T13:50:23;11.65;;;7.72;;
18304;SDS011;9278;52.156;21.048;2022-08-18T13:52:57;25.23;;;8.60;;
18304;SDS011;9278;52.156;21.048;2022-08-18T13:55:31;20.13;;;7.70;;
18304;SDS011;9278;52.156;21.048;2022-08-18T13:58:00;15.27;;;7.40;;
18304;SDS011;9278;52.156;21.048;2022-08-18T14:00:43;13.52;;;7.43;;
18304;SDS011;9278;52.156;21.048;2022-08-18T14:03:11;17.38;;;7.30;;
18304;SDS011;9278;52.156;21.048;2022-08-18T14:06:00;20.95;;;8.15;;
18304;SDS011;9278;52.156;21.048;2022-08-18T14:08:34;21.45;;;7.43;;
18304;SDS011;9278;52.156;21.048;2022-08-18T14:11:05;20.65;;;7.50;;
18304;SDS011;9278;52.156;21.048;2022-08-18T14:13:37;12.50;;;7.28;;
18304;SDS011;9278;52.156;21.048;2022-08-18T14:16:14;10.65;;;6.95;;
18304;SDS011;9278;52.156;21.048;2022-08-18T14:18:44;12.52;;;7.55;;
18304;SDS011;9278;52.156;21.048;2022-08-18T14:21:38;10.02;;;7.10;;
18304;SDS011;9278;52.156;21.048;2022-08-18T14:24:32;12.00;;;7.57;;
18304;SDS011;9278;52.156;21.048;2022-08-18T14:27:24;12.82;;;7.57;;
18304;SDS011;9278;52.156;21.048;2022-08-18T14:30:01;13.55;;;7.25;;
18304;SDS011;9278;52.156;21.048;2022-08-18T14:32:33;14.20;;;7.35;;
18304;SDS011;9278;52.156;21.048;2022-08-18T14:35:15;14.65;;;7.82;;
18304;SDS011;9278;52.156;21.048;2022-08-18T14:38:07;11.93;;;7.00;;
18304;SDS011;9278;52.156;21.048;2022-08-18T14:43:40;10.77;;;7.15;;
18304;SDS011;9278;52.156;21.048;2022-08-18T14:46:32;14.23;;;7.35;;
18304;SDS011;9278;52.156;21.048;2022-08-18T14:49:11;10.82;;;7.07;;
18304;SDS011;9278;52.156;21.048;2022-08-18T14:51:54;11.23;;;6.90;;
18304;SDS011;9278;52.156;21.048;2022-08-18T14:54:29;11.13;;;7.00;;
18304;SDS011;9278;52.156;21.048;2022-08-18T14:57:01;13.27;;;7.40;;
18304;SDS011;9278;52.156;21.048;2022-08-18T14:59:38;13.30;;;7.53;;
18304;SDS011;9278;52.156;21.048;2022-08-18T15:02:08;10.98;;;6.95;;
18304;SDS011;9278;52.156;21.048;2022-08-18T15:04:40;10.85;;;7.18;;
18304;SDS011;9278;52.156;21.048;2022-08-18T15:07:23;12.82;;;7.53;;
18304;SDS011;9278;52.156;21.048;2022-08-18T15:09:52;12.43;;;7.13;;
18304;SDS011;9278;52.156;21.048;2022-08-18T15:12:43;11.02;;;7.25;;
18304;SDS011;9278;52.156;21.048;2022-08-18T15:15:13;10.85;;;7.05;;
18304;SDS011;9278;52.156;21.048;2022-08-18T15:17:50;13.18;;;7.40;;
18304;SDS011;9278;52.156;21.048;2022-08-18T15:20:23;8.27;;;7.25;;
18304;SDS011;9278;52.156;21.048;2022-08-18T15:22:58;9.27;;;6.97;;
18304;SDS011;9278;52.156;21.048;2022-08-18T15:25:53;12.55;;;7.63;;
18304;SDS011;9278;52.156;21.048;2022-08-18T15:28:28;9.95;;;7.28;;
18304;SDS011;9278;52.156;21.048;2022-08-18T15:30:59;13.40;;;7.53;;
18304;SDS011;9278;52.156;21.048;2022-08-18T15:33:50;13.88;;;7.65;;
18304;SDS011;9278;52.156;21.048;2022-08-18T15:36:22;12.40;;;7.82;;
18304;SDS011;9278;52.156;21.048;2022-08-18T15:38:54;11.85;;;7.70;;
18304;SDS011;9278;52.156;21.048;2022-08-18T15:41:27;13.30;;;7.30;;
18304;SDS011;9278;52.156;21.048;2022-08-18T15:44:05;9.52;;;7.25;;
18304;SDS011;9278;52.156;21.048;2022-08-18T15:46:36;10.02;;;7.20;;
18304;SDS011;9278;52.156;21.048;2022-08-18T15:49:05;13.00;;;8.02;;
18304;SDS011;9278;52.156;21.048;2022-08-18T15:51:59;12.63;;;7.78;;
18304;SDS011;9278;52.156;21.048;2022-08-18T15:54:30;13.05;;;7.63;;
18304;SDS011;9278;52.156;21.048;2022-08-18T15:57:04;14.75;;;8.40;;
18304;SDS011;9278;52.156;21.048;2022-08-18T15:59:57;10.75;;;7.72;;
18304;SDS011;9278;52.156;21.048;2022-08-18T16:02:37;11.30;;;7.45;;
18304;SDS011;9278;52.156;21.048;2022-08-18T16:05:13;12.20;;;8.20;;
18304;SDS011;9278;52.156;21.048;2022-08-18T16:07:43;14.88;;;8.30;;
18304;SDS011;9278;52.156;21.048;2022-08-18T16:10:24;12.38;;;8.00;;
18304;SDS011;9278;52.156;21.048;2022-08-18T16:12:58;15.30;;;8.15;;
18304;SDS011;9278;52.156;21.048;2022-08-18T16:15:34;11.10;;;7.68;;
18304;SDS011;9278;52.156;21.048;2022-08-18T16:18:06;13.25;;;7.45;;
18304;SDS011;9278;52.156;21.048;2022-08-18T16:20:37;11.95;;;7.90;;
18304;SDS011;9278;52.156;21.048;2022-08-18T16:23:08;12.23;;;7.88;;
18304;SDS011;9278;52.156;21.048;2022-08-18T16:25:44;9.98;;;7.30;;
18304;SDS011;9278;52.156;21.048;2022-08-18T16:28:26;11.50;;;7.75;;
18304;SDS011;9278;52.156;21.048;2022-08-18T16:31:02;12.23;;;8.25;;
18304;SDS011;9278;52.156;21.048;2022-08-18T16:33:32;10.48;;;8.15;;
18304;SDS011;9278;52.156;21.048;2022-08-18T16:36:06;13.35;;;8.13;;
18304;SDS011;9278;52.156;21.048;2022-08-18T16:38:44;12.40;;;8.35;;
18304;SDS011;9278;52.156;21.048;2022-08-18T16:41:19;13.07;;;8.10;;
18304;SDS011;9278;52.156;21.048;2022-08-18T16:43:49;12.93;;;7.95;;
18304;SDS011;9278;52.156;21.048;2022-08-18T16:46:26;11.27;;;8.00;;
18304;SDS011;9278;52.156;21.048;2022-08-18T16:48:59;15.77;;;8.13;;
18304;SDS011;9278;52.156;21.048;2022-08-18T16:51:37;14.07;;;8.10;;
18304;SDS011;9278;52.156;21.048;2022-08-18T16:54:23;11.00;;;8.18;;
18304;SDS011;9278;52.156;21.048;2022-08-18T16:57:00;13.63;;;7.88;;
18304;SDS011;9278;52.156;21.048;2022-08-18T16:59:35;14.13;;;8.60;;
18304;SDS011;9278;52.156;21.048;2022-08-18T17:02:39;12.13;;;8.48;;
18304;SDS011;9278;52.156;21.048;2022-08-18T17:05:29;14.82;;;8.35;;
18304;SDS011;9278;52.156;21.048;2022-08-18T17:08:05;15.52;;;8.65;;
18304;SDS011;9278;52.156;21.048;2022-08-18T17:10:41;14.00;;;8.30;;
18304;SDS011;9278;52.156;21.048;2022-08-18T17:13:18;14.75;;;8.30;;
18304;SDS011;9278;52.156;21.048;2022-08-18T17:15:58;15.15;;;8.57;;
18304;SDS011;9278;52.156;21.048;2022-08-18T17:18:40;15.30;;;8.95;;
18304;SDS011;9278;52.156;21.048;2022-08-18T17:21:39;13.27;;;8.30;;
18304;SDS011;9278;52.156;21.048;2022-08-18T17:24:17;15.55;;;9.15;;
18304;SDS011;9278;52.156;21.048;2022-08-18T17:27:33;14.85;;;8.93;;